Time;durP1;ratioP1;P1;durP2;ratioP2;P2;SDS_P1;SDS_P2;PMS_P1;PMS_P2;Temp;Humidity;BMP_temperature;BMP_pressure;BME280_temperature;BME280_humidity;BME280_pressure;Samples;Min_cycle;Max_cycle;Signal;HPM_P1;HPM_P2
2023/03/25 00:00:58;;;;;;;1.08;0.60;;;;;;;12.46;85.02;99265.97;5050053;28;20484;-47
2023/03/25 00:03:28;;;;;;;0.98;0.65;;;;;;;12.49;85.37;99268.63;5046870;28;20033;-48
2023/03/25 00:05:56;;;;;;;0.38;0.38;;;;;;;12.39;85.50;99263.31;5046513;28;20534;-51
2023/03/25 00:08:23;;;;;;;0.63;0.52;;;;;;;12.31;85.74;99254.53;5051299;28;20090;-46
2023/03/25 00:10:53;;;;;;;2.28;0.80;;;;;;;12.28;86.56;99255.34;5040279;28;20036;-49
2023/03/25 00:13:20;;;;;;;0.57;0.50;;;;;;;12.40;85.42;99254.06;5039251;28;20056;-48
2023/03/25 00:15:46;;;;;;;1.13;0.68;;;;;;;12.53;84.91;99260.47;5045930;28;20025;-46
2023/03/25 00:18:13;;;;;;;0.60;0.60;;;;;;;12.45;84.94;99257.09;5041437;28;20090;-53
2023/03/25 00:20:39;;;;;;;0.70;0.57;;;;;;;12.33;85.34;99248.75;5050100;28;20048;-50
2023/03/25 00:23:07;;;;;;;0.77;0.38;;;;;;;12.39;84.89;99255.22;5048559;28;20560;-50
2023/03/25 00:25:33;;;;;;;0.30;0.30;;;;;;;12.22;85.88;99248.84;5040542;28;20048;-51
2023/03/25 00:27:59;;;;;;;0.30;0.30;;;;;;;12.24;85.37;99249.22;5026892;28;20040;-47
2023/03/25 00:30:25;;;;;;;0.35;0.35;;;;;;;12.33;85.19;99243.34;5028651;28;20158;-47
2023/03/25 00:32:54;;;;;;;5.57;0.75;;;;;;;12.48;83.95;99240.09;5049762;28;20395;-52
2023/03/25 00:35:20;;;;;;;0.40;0.40;;;;;;;12.33;84.49;99241.41;5032145;28;20025;-47
2023/03/25 00:37:51;;;;;;;0.77;0.52;;;;;;;12.39;84.31;99244.41;5044464;28;20037;-47
2023/03/25 00:40:16;;;;;;;0.60;0.60;;;;;;;12.23;85.25;99234.16;5028534;28;20115;-48
2023/03/25 00:42:48;;;;;;;1.13;0.70;;;;;;;12.13;85.84;99226.94;5049380;28;20119;-46
2023/03/25 00:45:15;;;;;;;1.60;0.65;;;;;;;12.05;86.34;99238.97;5017260;28;20032;-51
2023/03/25 00:47:42;;;;;;;0.55;0.55;;;;;;;12.07;85.52;99231.25;5036702;28;20563;-46
2023/03/25 00:50:08;;;;;;;0.98;0.77;;;;;;;12.03;85.93;99227.81;5043341;28;20037;-47
2023/03/25 00:52:34;;;;;;;1.15;0.65;;;;;;;11.99;86.33;99218.97;5026722;28;20388;-50
2023/03/25 00:55:00;;;;;;;0.52;0.47;;;;;;;12.04;85.77;99228.59;5047640;28;20029;-51
2023/03/25 00:57:26;;;;;;;0.77;0.60;;;;;;;12.02;85.75;99231.66;5049192;28;20040;-49
2023/03/25 00:59:52;;;;;;;0.65;0.65;;;;;;;12.05;85.18;99227.41;5033009;28;20091;-49
2023/03/25 01:02:17;;;;;;;1.10;0.50;;;;;;;11.98;86.61;99220.13;5035453;28;20037;-47
2023/03/25 01:04:44;;;;;;;1.33;0.50;;;;;;;12.02;86.08;99228.22;5049220;28;20103;-46
2023/03/25 01:07:11;;;;;;;0.40;0.40;;;;;;;12.06;86.58;99224.31;5047288;28;20623;-53
2023/03/25 01:09:38;;;;;;;0.73;0.40;;;;;;;11.98;87.23;99224.78;5050219;28;20041;-47
2023/03/25 01:12:03;;;;;;;0.43;0.43;;;;;;;12.13;86.48;99221.56;5050503;28;20047;-47
2023/03/25 01:14:29;;;;;;;0.80;0.32;;;;;;;12.00;86.78;99234.00;5032103;28;20029;-46
2023/03/25 01:16:54;;;;;;;0.60;0.60;;;;;;;12.15;86.49;99235.41;5041073;28;20381;-50
2023/03/25 01:19:21;;;;;;;3.35;0.70;;;;;;;12.13;86.32;99229.66;5031536;28;20064;-50
2023/03/25 01:21:47;;;;;;;0.45;0.30;;;;;;;12.17;86.30;99230.38;5030947;28;20039;-50
2023/03/25 01:24:14;;;;;;;1.13;0.68;;;;;;;12.33;86.25;99229.84;5049010;28;20103;-51
2023/03/25 01:26:42;;;;;;;0.68;0.60;;;;;;;12.30;85.68;99231.41;5028992;28;20032;-48
2023/03/25 01:29:09;;;;;;;0.55;0.55;;;;;;;12.41;85.19;99223.97;5049260;28;20506;-49
2023/03/25 01:31:37;;;;;;;1.15;0.77;;;;;;;12.36;85.85;99218.25;5050152;28;20041;-50
2023/03/25 01:34:03;;;;;;;0.88;0.63;;;;;;;12.36;85.96;99229.81;5035320;28;20022;-53
2023/03/25 01:36:29;;;;;;;0.40;0.40;;;;;;;12.36;85.60;99220.94;5041804;28;20037;-52
2023/03/25 01:38:57;;;;;;;0.77;0.50;;;;;;;12.54;84.71;99219.56;5046097;28;20095;-53
2023/03/25 01:41:24;;;;;;;0.70;0.47;;;;;;;12.47;85.40;99221.59;5031927;28;20029;-53
2023/03/25 01:44:08;;;;;;;0.93;0.68;;;;;;;12.52;85.29;99221.91;5048498;28;20064;-47
2023/03/25 01:46:37;;;;;;;0.60;0.50;;;;;;;12.58;85.04;99214.16;5041220;28;20045;-47
2023/03/25 01:49:06;;;;;;;0.52;0.47;;;;;;;12.40;85.58;99206.25;5047537;28;20029;-49
2023/03/25 01:51:37;;;;;;;0.63;0.63;;;;;;;12.38;84.84;99215.91;5048701;28;20029;-48
2023/03/25 01:54:03;;;;;;;;;;;;;;;12.29;85.63;99205.56;5049761;28;20538;-53
2023/03/25 01:56:37;;;;;;;0.30;0.30;;;;;;;12.31;85.67;99197.84;5049511;28;19948;-48
2023/03/25 01:59:06;;;;;;;0.60;0.47;;;;;;;12.35;85.32;99201.28;5029288;28;20040;-49
2023/03/25 02:01:32;;;;;;;3.20;0.57;;;;;;;12.24;86.19;99197.16;5044078;28;20482;-52
2023/03/25 02:04:08;;;;;;;1.08;0.52;;;;;;;12.11;86.37;99198.84;5021851;28;20446;-49
2023/03/25 02:06:46;;;;;;;0.30;0.30;;;;;;;12.24;85.65;99197.91;5042117;28;20114;-54
2023/03/25 02:09:16;;;;;;;0.40;0.30;;;;;;;12.29;85.88;99186.69;5029649;28;20036;-51
2023/03/25 02:11:42;;;;;;;0.40;0.40;;;;;;;12.31;85.54;99189.75;5030785;28;20025;-53
2023/03/25 02:14:14;;;;;;;5.65;0.52;;;;;;;12.31;85.23;99184.34;5024228;28;20058;-51
2023/03/25 02:16:59;;;;;;;0.68;0.40;;;;;;;12.32;85.14;99180.50;5042106;28;20037;-54
2023/03/25 02:19:41;;;;;;;1.85;0.32;;;;;;;12.28;85.36;99177.06;5048389;28;20475;-51
2023/03/25 02:22:28;;;;;;;0.43;0.40;;;;;;;12.41;85.16;99172.66;5045272;28;20037;-47
2023/03/25 02:25:08;;;;;;;0.65;0.40;;;;;;;12.39;84.00;99175.00;5042038;28;20033;-53
2023/03/25 02:27:46;;;;;;;0.50;0.50;;;;;;;12.38;84.60;99176.19;5026511;28;20021;-46
2023/03/25 02:30:48;;;;;;;1.05;0.70;;;;;;;12.36;84.56;99167.72;5041737;28;20044;-53
2023/03/25 02:33:13;;;;;;;0.95;0.65;;;;;;;12.34;85.07;99169.28;5017339;28;20043;-48
2023/03/25 02:35:48;;;;;;;0.77;0.43;;;;;;;12.40;84.24;99173.06;5047617;28;20033;-49
2023/03/25 02:38:24;;;;;;;1.40;0.60;;;;;;;12.21;84.82;99179.06;5030971;28;20036;-52
2023/03/25 02:41:06;;;;;;;0.90;0.57;;;;;;;12.35;84.69;99174.28;5019591;28;20416;-46
2023/03/25 02:43:58;;;;;;;0.32;0.32;;;;;;;12.30;84.50;99169.31;5029112;28;20021;-48
2023/03/25 02:46:26;;;;;;;0.30;0.30;;;;;;;12.28;84.18;99174.34;5025890;28;20037;-53
2023/03/25 02:49:01;;;;;;;0.50;0.50;;;;;;;12.25;84.96;99163.59;5034414;28;20067;-46
2023/03/25 02:51:35;;;;;;;1.35;0.68;;;;;;;12.38;84.42;99161.91;5053242;28;20041;-46
2023/03/25 02:54:08;;;;;;;0.22;0.22;;;;;;;12.19;84.15;99162.50;5032851;28;20436;-49
2023/03/25 02:56:35;;;;;;;1.00;0.70;;;;;;;12.15;84.68;99167.94;5044194;28;20465;-46
2023/03/25 02:59:04;;;;;;;1.45;0.55;;;;;;;12.21;84.66;99157.47;5034763;28;20037;-50
2023/03/25 03:01:33;;;;;;;1.13;0.52;;;;;;;11.85;85.92;99162.44;5052463;28;20395;-49
2023/03/25 03:03:59;;;;;;;0.43;0.43;;;;;;;12.02;86.05;99153.41;5023640;28;20021;-54
2023/03/25 03:06:26;;;;;;;0.38;0.38;;;;;;;12.14;85.38;99146.75;5030346;28;20036;-52
2023/03/25 03:09:24;;;;;;;0.80;0.68;;;;;;;11.98;85.95;99152.69;5050150;28;20021;-52
2023/03/25 03:12:04;;;;;;;3.10;0.57;;;;;;;12.11;85.22;99159.13;5024972;28;20041;-50
2023/03/25 03:14:42;;;;;;;0.47;0.30;;;;;;;12.04;85.20;99153.03;5048123;28;20033;-51
2023/03/25 03:17:17;;;;;;;0.43;0.43;;;;;;;12.09;84.91;99147.97;5052053;28;20123;-48
2023/03/25 03:20:00;;;;;;;0.40;0.40;;;;;;;12.15;85.18;99145.59;5034179;28;20441;-49
2023/03/25 03:22:45;;;;;;;0.68;0.40;;;;;;;12.24;84.15;99141.25;5045964;28;20453;-47
2023/03/25 03:25:33;;;;;;;0.60;0.40;;;;;;;12.22;84.57;99145.50;5051013;28;20044;-51
2023/03/25 03:28:09;;;;;;;0.93;0.50;;;;;;;12.32;84.36;99145.41;5040780;28;21145;-46
2023/03/25 03:30:45;;;;;;;0.35;0.35;;;;;;;12.20;83.95;99134.34;5037973;28;20112;-54
2023/03/25 03:33:20;;;;;;;0.70;0.60;;;;;;;12.31;84.07;99143.84;5051589;28;20037;-47
2023/03/25 03:35:56;;;;;;;0.40;0.40;;;;;;;12.34;83.69;99131.50;5048672;28;20090;-50
2023/03/25 03:38:25;;;;;;;4.00;0.80;;;;;;;12.34;83.82;99142.28;5050193;28;20040;-51
2023/03/25 03:41:03;;;;;;;0.63;0.47;;;;;;;12.30;84.03;99144.25;5051873;28;20021;-51
2023/03/25 03:43:48;;;;;;;0.30;0.30;;;;;;;12.14;84.45;99147.50;5043675;28;20353;-47
2023/03/25 03:46:21;;;;;;;0.30;0.30;;;;;;;12.15;84.31;99140.19;5045478;28;20036;-51
2023/03/25 03:48:53;;;;;;;1.52;0.50;;;;;;;12.00;85.00;99142.25;5049392;28;20040;-46
2023/03/25 03:51:49;;;;;;;0.40;0.40;;;;;;;12.09;85.10;99144.50;5047863;28;20029;-48
2023/03/25 03:54:37;;;;;;;0.40;0.32;;;;;;;12.21;83.54;99144.75;5050208;28;20078;-51
2023/03/25 03:57:19;;;;;;;1.08;0.40;;;;;;;12.34;83.23;99148.47;5044466;28;20044;-47
2023/03/25 04:00:02;;;;;;;0.90;0.50;;;;;;;12.35;83.62;99147.28;5043752;28;20044;-51
2023/03/25 04:02:48;;;;;;;0.80;0.70;;;;;;;12.35;83.56;99144.56;5044822;28;20044;-51
2023/03/25 04:05:18;;;;;;;0.65;0.50;;;;;;;12.27;83.34;99137.72;5049599;28;20033;-53
2023/03/25 04:07:53;;;;;;;1.10;0.52;;;;;;;12.08;83.92;99135.63;5051649;28;20039;-48
2023/03/25 04:10:33;;;;;;;1.10;0.77;;;;;;;12.15;83.47;99140.19;5044253;28;20049;-51
2023/03/25 04:13:06;;;;;;;0.95;0.43;;;;;;;12.22;83.85;99132.00;5067799;23;20752;-63
2023/03/25 04:15:32;;;;;;;0.70;0.30;;;;;;;12.04;84.28;99142.25;5036612;28;20092;-62
2023/03/25 04:17:57;;;;;;;0.70;0.70;;;;;;;12.04;84.30;99139.53;5040299;28;20058;-62
2023/03/25 04:20:28;;;;;;;0.40;0.40;;;;;;;12.03;83.95;99136.06;5045403;28;20401;-64
2023/03/25 04:22:54;;;;;;;2.15;0.80;;;;;;;12.09;84.04;99131.78;5052082;28;20029;-63
2023/03/25 04:25:20;;;;;;;0.77;0.43;;;;;;;12.17;83.30;99132.47;5034266;28;20025;-64
2023/03/25 04:27:47;;;;;;;0.32;0.32;;;;;;;12.20;83.72;99140.50;5038245;28;20604;-63
2023/03/25 04:30:16;;;;;;;0.55;0.50;;;;;;;12.12;83.95;99135.59;5044162;28;20580;-65
2023/03/25 04:32:45;;;;;;;0.45;0.45;;;;;;;12.07;84.26;99152.22;5052374;28;20024;-65
2023/03/25 04:35:15;;;;;;;2.63;1.08;;;;;;;12.01;84.60;99149.19;5029448;28;20048;-66
2023/03/25 04:37:44;;;;;;;0.80;0.60;;;;;;;11.96;84.38;99144.25;5040231;28;20045;-65
2023/03/25 04:40:12;;;;;;;0.32;0.30;;;;;;;12.03;84.80;99146.09;5046605;28;20029;-65
2023/03/25 04:42:41;;;;;;;0.63;0.55;;;;;;;12.06;84.17;99154.16;5030051;28;20033;-64
2023/03/25 04:45:15;;;;;;;0.40;0.40;;;;;;;12.02;83.98;99148.03;5035257;28;20024;-65
2023/03/25 04:47:45;;;;;;;1.52;0.68;;;;;;;11.83;84.35;99139.75;5027394;28;20033;-66
2023/03/25 04:50:24;;;;;;;1.23;0.50;;;;;;;11.84;84.86;99144.75;5059626;28;20029;-65
2023/03/25 04:52:51;;;;;;;0.47;0.32;;;;;;;12.06;84.13;99137.97;5038638;28;20041;-66
2023/03/25 04:55:19;;;;;;;1.63;0.57;;;;;;;12.03;83.84;99154.19;5030568;28;20028;-66
2023/03/25 04:57:49;;;;;;;0.55;0.50;;;;;;;11.99;84.40;99140.75;5031270;28;20037;-64
2023/03/25 05:00:18;;;;;;;1.05;0.70;;;;;;;11.96;84.13;99148.88;5042083;28;20037;-65
2023/03/25 05:02:46;;;;;;;0.82;0.38;;;;;;;11.96;84.93;99140.78;5033492;28;20044;-65
2023/03/25 05:05:17;;;;;;;0.40;0.40;;;;;;;12.09;84.17;99145.25;5029718;28;20069;-64
2023/03/25 05:07:48;;;;;;;0.60;0.43;;;;;;;12.03;85.01;99146.09;5027441;28;20034;-63
2023/03/25 05:10:18;;;;;;;1.55;0.30;;;;;;;12.03;85.86;99138.78;5025708;28;20504;-64
2023/03/25 05:12:44;;;;;;;3.10;0.77;;;;;;;12.08;85.00;99135.63;5032283;28;20028;-65
2023/03/25 05:15:10;;;;;;;0.50;0.40;;;;;;;11.95;86.52;99137.31;5032349;28;20040;-64
2023/03/25 05:17:37;;;;;;;0.43;0.43;;;;;;;11.95;86.16;99137.31;5040982;28;20128;-65
2023/03/25 05:20:08;;;;;;;0.13;0.13;;;;;;;11.75;86.99;99134.41;5050915;28;20025;-66
2023/03/25 05:22:33;;;;;;;;;;;;;;;11.91;86.34;99146.59;5042272;28;20037;-65
2023/03/25 05:25:01;;;;;;;0.70;0.60;;;;;;;11.92;85.98;99138.13;5019717;28;19996;-65
2023/03/25 05:27:29;;;;;;;0.57;0.32;;;;;;;12.04;85.08;99140.28;5040332;28;20037;-65
2023/03/25 05:29:57;;;;;;;1.10;0.40;;;;;;;12.00;85.22;99147.66;5036354;28;20041;-65
2023/03/25 05:32:28;;;;;;;0.55;0.40;;;;;;;12.06;85.33;99143.34;5025155;28;20128;-66
2023/03/25 05:34:55;;;;;;;0.15;0.15;;;;;;;12.14;84.67;99141.34;5031588;28;20029;-65
2023/03/25 05:37:21;;;;;;;0.13;0.13;;;;;;;11.82;84.35;99149.78;5046131;28;20045;-64
2023/03/25 05:39:46;;;;;;;1.77;0.50;;;;;;;11.93;85.50;99145.03;5033139;28;20055;-64
2023/03/25 05:42:13;;;;;;;0.15;0.15;;;;;;;12.01;84.99;99156.53;5039406;28;20489;-65
2023/03/25 05:44:45;;;;;;;5.53;0.40;;;;;;;11.95;84.61;99152.72;5038767;28;20025;-65
2023/03/25 05:47:11;;;;;;;0.68;0.32;;;;;;;11.94;85.09;99151.22;5037587;28;20036;-66
2023/03/25 05:49:36;;;;;;;0.35;0.35;;;;;;;11.89;84.73;99154.31;5036142;28;20034;-66
2023/03/25 05:52:02;;;;;;;0.25;0.25;;;;;;;11.88;84.49;99158.97;5038418;28;20027;-66
2023/03/25 05:54:28;;;;;;;0.30;0.30;;;;;;;11.89;85.17;99167.81;5048883;28;20079;-65
2023/03/25 05:56:53;;;;;;;0.63;0.40;;;;;;;12.00;84.49;99165.78;5045606;28;20060;-65
2023/03/25 05:59:19;;;;;;;0.30;0.30;;;;;;;12.01;83.99;99175.41;5030928;28;20029;-65
2023/03/25 06:01:44;;;;;;;0.38;0.38;;;;;;;11.86;85.23;99165.91;5029303;28;20053;-66
2023/03/25 06:04:12;;;;;;;0.20;0.20;;;;;;;11.73;86.32;99168.34;5017514;28;20029;-65
2023/03/25 06:06:38;;;;;;;0.32;0.20;;;;;;;11.88;85.91;99167.06;5026205;28;20068;-65
2023/03/25 06:09:05;;;;;;;0.43;0.35;;;;;;;11.90;85.92;99164.72;5032120;28;20043;-65
2023/03/25 06:11:36;;;;;;;0.38;0.38;;;;;;;11.96;85.77;99167.75;5027806;28;20566;-65
2023/03/25 06:14:03;;;;;;;0.22;0.22;;;;;;;12.00;85.79;99168.50;5030739;28;20401;-66
2023/03/25 06:16:30;;;;;;;0.75;0.63;;;;;;;12.15;84.71;99167.94;5019515;28;20041;-65
2023/03/25 06:18:59;;;;;;;0.30;0.30;;;;;;;12.01;85.57;99168.09;5024122;28;20072;-65
2023/03/25 06:21:26;;;;;;;0.20;0.20;;;;;;;11.96;86.16;99168.53;5028524;28;20041;-66
2023/03/25 06:23:53;;;;;;;0.30;0.22;;;;;;;11.95;85.81;99164.28;5029408;28;20017;-66
2023/03/25 06:26:20;;;;;;;0.17;0.17;;;;;;;11.97;86.49;99172.75;5032274;28;20041;-66
2023/03/25 06:28:46;;;;;;;0.20;0.20;;;;;;;12.12;85.48;99173.38;5035471;28;20065;-65
2023/03/25 06:31:13;;;;;;;0.75;0.45;;;;;;;12.08;85.90;99181.50;5030973;28;20389;-65
2023/03/25 06:33:38;;;;;;;0.20;0.20;;;;;;;11.96;87.57;99179.31;5029580;28;20041;-65
2023/03/25 06:36:04;;;;;;;0.80;0.80;;;;;;;12.05;86.64;99176.91;5011782;28;20041;-65
2023/03/25 06:38:32;;;;;;;0.30;0.30;;;;;;;12.10;87.43;99179.16;5027773;28;20018;-66
2023/03/25 06:41:06;;;;;;;0.40;0.40;;;;;;;12.12;87.06;99176.84;5028592;28;20444;-66
2023/03/25 06:43:33;;;;;;;0.40;0.40;;;;;;;12.16;87.07;99185.66;5025129;28;20030;-66
2023/03/25 06:46:17;;;;;;;1.63;0.55;;;;;;;12.26;86.86;99184.78;5011821;28;20064;-65
2023/03/25 06:49:07;;;;;;;0.50;0.50;;;;;;;12.26;86.74;99190.19;5045461;28;20120;-66
2023/03/25 06:51:33;;;;;;;0.55;0.40;;;;;;;12.33;86.47;99187.41;5029438;28;20129;-65
2023/03/25 06:53:58;;;;;;;0.85;0.22;;;;;;;12.32;87.16;99182.41;5021805;28;20095;-66
2023/03/25 06:56:24;;;;;;;0.35;0.30;;;;;;;12.51;86.56;99185.28;5037863;28;20099;-66
2023/03/25 06:58:49;;;;;;;0.52;0.40;;;;;;;12.49;86.59;99184.16;5032709;28;20021;-65
2023/03/25 07:01:15;;;;;;;0.90;0.55;;;;;;;12.46;85.61;99182.25;5027186;28;20033;-65
2023/03/25 07:03:41;;;;;;;0.32;0.30;;;;;;;12.39;85.62;99193.91;5021331;28;20472;-66
2023/03/25 07:06:07;;;;;;;0.43;0.32;;;;;;;12.38;86.32;99195.09;5032146;28;20386;-66
2023/03/25 07:08:33;;;;;;;1.90;0.40;;;;;;;12.37;86.57;99207.03;5024409;28;20536;-65
2023/03/25 07:11:04;;;;;;;0.25;0.25;;;;;;;12.54;86.42;99200.66;5028360;28;20761;-66
2023/03/25 07:13:30;;;;;;;2.17;0.30;;;;;;;12.41;87.43;99186.16;5043047;28;20033;-66
2023/03/25 07:15:56;;;;;;;0.43;0.40;;;;;;;12.27;88.79;99190.97;5032818;28;20124;-66
2023/03/25 07:18:22;;;;;;;0.50;0.40;;;;;;;12.32;88.78;99188.59;5027767;28;20040;-66
2023/03/25 07:20:47;;;;;;;0.25;0.25;;;;;;;12.43;88.80;99178.44;5014756;28;20046;-67
2023/03/25 07:23:13;;;;;;;0.30;0.30;;;;;;;12.43;89.50;99196.56;5032666;28;20204;-66
2023/03/25 07:25:38;;;;;;;0.90;0.20;;;;;;;12.27;90.38;99196.38;5036459;28;20083;-66
2023/03/25 07:28:04;;;;;;;0.32;0.32;;;;;;;12.52;89.59;99191.47;5023513;28;20026;-66
2023/03/25 07:30:34;;;;;;;5.65;0.40;;;;;;;12.62;89.69;99201.34;5038878;28;20037;-66
2023/03/25 07:33:00;;;;;;;0.50;0.50;;;;;;;12.83;89.01;99198.41;5036054;28;20080;-66
2023/03/25 07:35:25;;;;;;;0.38;0.38;;;;;;;12.85;88.66;99193.38;5037491;28;20068;-66
2023/03/25 07:37:51;;;;;;;0.50;0.50;;;;;;;12.79;88.64;99194.22;5044641;28;20082;-66
2023/03/25 07:40:16;;;;;;;0.65;0.65;;;;;;;13.05;87.70;99190.81;5036184;28;20091;-66
2023/03/25 07:42:43;;;;;;;0.20;0.20;;;;;;;13.09;86.93;99199.63;5030593;28;20034;-66
2023/03/25 07:45:23;;;;;;;3.30;0.60;;;;;;;13.04;85.83;99205.50;5026127;28;20030;-66
2023/03/25 07:47:51;;;;;;;0.15;0.15;;;;;;;12.99;85.12;99209.38;5038470;28;20036;-66
2023/03/25 07:50:19;;;;;;;0.25;0.25;;;;;;;12.81;84.98;99203.44;5034391;28;20037;-66
2023/03/25 07:52:44;;;;;;;0.60;0.50;;;;;;;12.91;84.46;99204.50;5041992;28;20037;-67
2023/03/25 07:55:11;;;;;;;0.38;0.30;;;;;;;12.73;83.39;99212.03;5035065;28;20039;-65
2023/03/25 07:57:36;;;;;;;0.25;0.20;;;;;;;12.98;82.46;99209.78;5032468;28;20422;-66
2023/03/25 08:00:04;;;;;;;0.20;0.20;;;;;;;13.09;82.40;99205.81;5022908;28;20555;-67
2023/03/25 08:02:38;;;;;;;0.28;0.17;;;;;;;13.20;82.52;99209.13;5036476;28;20048;-66
2023/03/25 08:05:04;;;;;;;0.65;0.30;;;;;;;13.35;81.97;99196.94;5045822;28;20535;-65
2023/03/25 08:07:31;;;;;;;0.55;0.47;;;;;;;13.78;81.35;99220.63;5034116;28;20109;-66
2023/03/25 08:09:56;;;;;;;0.17;0.17;;;;;;;14.06;79.99;99212.81;5044062;28;20111;-65
2023/03/25 08:12:22;;;;;;;0.20;0.20;;;;;;;14.13;79.31;99203.81;5044276;28;20032;-66
2023/03/25 08:14:47;;;;;;;0.30;0.30;;;;;;;14.53;78.29;99220.88;5026348;28;20113;-66
2023/03/25 08:17:16;;;;;;;0.77;0.47;;;;;;;14.81;75.69;99223.78;5036037;28;20529;-66
2023/03/25 08:19:41;;;;;;;0.30;0.30;;;;;;;14.87;75.47;99213.22;5032777;28;20033;-66
2023/03/25 08:22:07;;;;;;;0.22;0.22;;;;;;;14.84;71.79;99216.78;5044348;28;20087;-67
2023/03/25 08:24:32;;;;;;;0.30;0.20;;;;;;;14.15;74.10;99218.44;5041222;28;20442;-66
2023/03/25 08:27:01;;;;;;;0.13;0.13;;;;;;;14.24;75.47;99221.38;5042032;28;20032;-65
2023/03/25 08:29:27;;;;;;;0.15;0.15;;;;;;;13.97;78.32;99222.63;5045954;28;20086;-66
2023/03/25 08:31:53;;;;;;;1.77;0.20;;;;;;;14.07;77.95;99219.00;5037624;28;20041;-66
2023/03/25 08:34:20;;;;;;;0.28;0.28;;;;;;;14.14;77.13;99216.91;5037365;28;20692;-66
2023/03/25 08:36:46;;;;;;;0.20;0.20;;;;;;;14.16;77.07;99209.16;5030550;28;20040;-66
2023/03/25 08:39:15;;;;;;;0.25;0.25;;;;;;;14.17;76.33;99216.09;5023266;28;20036;-66
2023/03/25 08:41:41;;;;;;;0.10;0.10;;;;;;;13.91;76.02;99225.06;5028353;28;20047;-65
2023/03/25 08:44:07;;;;;;;0.20;0.20;;;;;;;13.95;76.09;99212.22;5044840;28;20032;-66
2023/03/25 08:46:32;;;;;;;1.10;1.00;;;;;;;14.22;76.24;99215.63;5030265;28;20036;-66
2023/03/25 08:48:58;;;;;;;0.32;0.20;;;;;;;14.40;75.68;99213.38;5027342;28;20044;-66
2023/03/25 08:51:24;;;;;;;0.20;0.20;;;;;;;14.47;73.38;99207.06;5031975;28;20409;-67
2023/03/25 08:53:49;;;;;;;0.15;0.15;;;;;;;14.35;74.05;99204.97;5036780;28;20017;-65
2023/03/25 08:56:15;;;;;;;0.10;0.10;;;;;;;14.53;73.36;99199.97;5023847;28;20030;-66
2023/03/25 08:58:40;;;;;;;1.95;0.38;;;;;;;14.46;74.14;99205.50;5030833;28;20029;-66
2023/03/25 09:01:06;;;;;;;0.38;0.20;;;;;;;14.45;75.11;99196.66;5038700;28;20112;-65
2023/03/25 09:03:32;;;;;;;0.73;0.60;;;;;;;14.57;73.42;99210.75;5029003;28;20398;-65
2023/03/25 09:06:03;;;;;;;0.10;0.10;;;;;;;14.41;73.27;99209.50;5031947;28;20040;-66
2023/03/25 09:08:28;;;;;;;0.75;0.30;;;;;;;14.62;71.80;99213.72;5026658;28;20568;-66
2023/03/25 09:10:54;;;;;;;0.28;0.22;;;;;;;14.38;73.47;99210.31;5019312;28;20029;-67
2023/03/25 09:13:20;;;;;;;0.00;0.00;;;;;;;14.18;74.64;99209.50;5030715;28;20033;-65
2023/03/25 09:15:45;;;;;;;0.20;0.20;;;;;;;14.02;77.35;99214.81;5030397;28;20059;-66
2023/03/25 09:18:11;;;;;;;0.17;0.17;;;;;;;13.74;79.86;99214.50;5027619;28;20033;-64
2023/03/25 09:20:36;;;;;;;0.10;0.10;;;;;;;13.35;82.75;99209.69;5029022;28;20045;-66
2023/03/25 09:23:02;;;;;;;0.10;0.10;;;;;;;12.92;86.53;99233.03;5029154;28;20040;-67
2023/03/25 09:25:28;;;;;;;0.25;0.20;;;;;;;13.06;85.94;99238.28;5029509;28;20029;-66
2023/03/25 09:27:54;;;;;;;0.13;0.10;;;;;;;12.36;86.97;99242.53;5024252;28;20052;-67
2023/03/25 09:30:20;;;;;;;0.10;0.10;;;;;;;12.40;85.94;99230.53;5027682;28;20037;-67
2023/03/25 09:32:45;;;;;;;0.10;0.10;;;;;;;12.02;87.57;99228.22;5022752;28;20040;-66
2023/03/25 09:35:11;;;;;;;0.00;0.00;;;;;;;11.78;90.75;99228.03;5018438;28;20017;-67
2023/03/25 09:37:36;;;;;;;0.05;0.03;;;;;;;11.98;90.63;99227.47;5016643;28;20402;-66
2023/03/25 09:40:03;;;;;;;0.30;0.30;;;;;;;11.87;91.35;99226.78;5012101;28;20486;-66
2023/03/25 09:42:52;;;;;;;0.08;0.08;;;;;;;11.79;90.39;99239.56;5015307;28;20491;-67
2023/03/25 09:45:23;;;;;;;0.43;0.43;;;;;;;11.64;91.26;99241.59;5018360;28;20699;-67
2023/03/25 09:48:21;;;;;;;0.13;0.13;;;;;;;11.73;91.01;99222.28;5015049;28;20556;-66
2023/03/25 09:50:47;;;;;;;0.00;0.00;;;;;;;11.37;94.05;99239.84;5005764;28;20049;-67
2023/03/25 09:53:35;;;;;;;0.10;0.10;;;;;;;11.58;90.12;99237.00;5016531;28;20033;-66
2023/03/25 09:56:03;;;;;;;0.00;0.00;;;;;;;11.60;90.24;99235.44;5024310;28;20053;-65
2023/03/25 09:58:42;;;;;;;0.10;0.10;;;;;;;11.52;90.51;99238.56;5022306;28;20579;-65
2023/03/25 10:01:13;;;;;;;0.20;0.20;;;;;;;11.63;90.42;99228.50;5018415;28;20029;-66
2023/03/25 10:03:54;;;;;;;0.20;0.20;;;;;;;11.71;89.26;99232.72;5023919;28;20029;-66
2023/03/25 10:06:25;;;;;;;0.10;0.10;;;;;;;11.55;89.91;99237.81;5017003;28;20041;-66
2023/03/25 10:09:21;;;;;;;0.10;0.10;;;;;;;11.60;89.98;99234.66;5026802;28;20037;-66
2023/03/25 10:12:17;;;;;;;0.10;0.10;;;;;;;11.67;90.12;99229.28;5021716;28;20042;-66
2023/03/25 10:15:02;;;;;;;0.20;0.20;;;;;;;11.84;90.47;99222.97;5040766;22;20049;-70
2023/03/25 10:18:06;;;;;;;0.25;0.10;;;;;;;11.73;90.77;99230.38;5019649;28;20136;-70
2023/03/25 10:20:42;;;;;;;0.80;0.30;;;;;;;11.76;92.16;99237.69;5032206;28;20041;-70
2023/03/25 10:23:10;;;;;;;0.57;0.22;;;;;;;12.14;90.89;99231.16;5034568;28;20491;-71
2023/03/25 10:25:40;;;;;;;0.10;0.10;;;;;;;12.22;91.82;99224.53;5005752;28;20397;-71
2023/03/25 10:28:12;;;;;;;2.45;0.30;;;;;;;12.42;92.92;99220.09;5005224;28;20117;-70
2023/03/25 10:30:45;;;;;;;0.28;0.22;;;;;;;12.80;92.79;99222.75;5026277;28;20096;-69
2023/03/25 10:33:31;;;;;;;0.30;0.20;;;;;;;13.05;91.25;99232.13;5001998;28;20116;-72
2023/03/25 10:35:59;;;;;;;0.20;0.20;;;;;;;13.15;90.35;99222.34;5027466;28;20123;-69
2023/03/25 10:38:24;;;;;;;0.40;0.40;;;;;;;13.36;90.37;99225.50;5004859;28;20106;-67
2023/03/25 10:41:24;;;;;;;0.10;0.10;;;;;;;13.65;90.04;99236.66;5005559;28;20025;-67
2023/03/25 10:43:50;;;;;;;0.20;0.17;;;;;;;14.08;89.73;99234.81;5009671;28;20037;-68
2023/03/25 10:46:36;;;;;;;0.52;0.52;;;;;;;14.31;86.38;99234.81;5020534;28;20040;-68
2023/03/25 10:49:01;;;;;;;0.20;0.17;;;;;;;14.11;85.32;99239.38;5027596;28;20087;-69
2023/03/25 10:51:35;;;;;;;0.73;0.10;;;;;;;14.17;84.51;99236.97;5016004;28;20116;-68
2023/03/25 10:54:00;;;;;;;0.70;0.20;;;;;;;14.26;83.06;99235.28;5028217;28;20030;-68
2023/03/25 10:56:54;;;;;;;0.95;0.30;;;;;;;14.21;81.78;99227.63;5020217;28;20033;-69
2023/03/25 10:59:40;;;;;;;1.80;0.30;;;;;;;14.15;81.17;99226.56;5003282;28;20082;-69
2023/03/25 11:02:16;;;;;;;0.10;0.10;;;;;;;14.27;81.61;99228.69;5020955;28;20395;-71
2023/03/25 11:04:45;;;;;;;0.10;0.10;;;;;;;14.18;82.02;99225.75;5010527;28;20096;-69
2023/03/25 11:07:25;;;;;;;0.28;0.20;;;;;;;14.19;81.57;99229.19;5013597;28;20057;-69
2023/03/25 11:09:50;;;;;;;0.80;0.30;;;;;;;14.05;78.06;99237.59;5008988;28;20374;-68
2023/03/25 11:12:21;;;;;;;0.30;0.30;;;;;;;14.03;78.75;99248.81;5015093;28;20060;-69
2023/03/25 11:14:55;;;;;;;0.20;0.20;;;;;;;14.07;78.39;99243.34;5014459;28;20033;-69
2023/03/25 11:17:24;;;;;;;1.52;0.28;;;;;;;13.98;77.16;99232.28;5007626;28;20052;-67
2023/03/25 11:19:59;;;;;;;1.92;0.20;;;;;;;13.91;77.73;99241.28;4998924;28;20047;-69
2023/03/25 11:22:32;;;;;;;2.17;1.10;;;;;;;13.74;77.35;99242.34;5030836;28;20181;-71
2023/03/25 11:25:21;;;;;;;0.10;0.10;;;;;;;13.58;78.92;99245.66;5006682;28;20041;-72
2023/03/25 11:28:02;;;;;;;2.72;0.50;;;;;;;13.49;79.96;99242.69;5017167;28;20048;-68
2023/03/25 11:30:28;;;;;;;;;;;;;;;13.13;83.86;99246.28;5029862;28;20232;-69
2023/03/25 11:33:01;;;;;;;1.20;0.32;;;;;;;13.09;84.05;99248.28;5032509;28;20437;-66
2023/03/25 11:35:30;;;;;;;0.50;0.20;;;;;;;12.90;85.33;99255.06;5028297;28;20517;-68
2023/03/25 11:37:58;;;;;;;0.20;0.17;;;;;;;12.69;86.54;99242.56;5028887;28;20402;-68
2023/03/25 11:40:26;;;;;;;0.10;0.10;;;;;;;12.60;86.73;99242.25;5028427;28;20064;-68
2023/03/25 11:42:54;;;;;;;0.60;0.30;;;;;;;12.56;87.48;99252.34;5031475;28;20448;-70
2023/03/25 11:45:44;;;;;;;0.28;0.28;;;;;;;12.59;87.83;99262.34;5029279;28;20091;-70
2023/03/25 11:48:18;;;;;;;0.30;0.30;;;;;;;12.45;87.97;99269.81;5024964;28;20090;-70
2023/03/25 11:50:51;;;;;;;0.13;0.13;;;;;;;12.16;89.33;99258.53;5008218;28;20033;-70